createdAt,value
2022-10-16T00:01:12.334Z,100430.03
2022-10-16T00:03:39.075Z,100432.44
2022-10-16T00:06:05.459Z,100430.03
2022-10-16T00:08:32.106Z,100431.25
2022-10-16T00:11:02.811Z,100438.09
2022-10-16T00:13:29.171Z,100442.13
2022-10-16T00:15:56.063Z,100434.06
2022-10-16T00:18:22.448Z,100431.66
2022-10-16T00:20:48.920Z,100426.03
2022-10-16T00:23:15.354Z,100430.06
2022-10-16T00:25:41.602Z,100442.91
2022-10-16T00:28:07.925Z,100446.16
2022-10-16T00:30:34.183Z,100443.75
2022-10-16T00:33:00.630Z,100438.50
2022-10-16T00:35:26.989Z,100441.72
2022-10-16T00:37:53.311Z,100438.91
2022-10-16T00:40:19.587Z,100434.50
2022-10-16T00:42:46.194Z,100446.56
2022-10-16T00:45:12.663Z,100442.53
2022-10-16T00:47:46.083Z,100438.09
2022-10-16T00:50:17.370Z,100435.31
2022-10-16T00:52:45.300Z,100445.72
2022-10-16T00:55:11.832Z,100443.75
2022-10-16T00:57:38.850Z,100448.94
2022-10-16T01:00:07.618Z,100447.31
2022-10-16T01:02:33.922Z,100444.50
2022-10-16T01:05:00.531Z,100441.69
2022-10-16T01:07:27.098Z,100442.09
2022-10-16T01:10:16.967Z,100444.91
2022-10-16T01:13:02.073Z,100443.72
2022-10-16T01:15:47.284Z,100444.91
2022-10-16T01:18:34.948Z,100446.09
2022-10-16T01:21:05.864Z,100452.94
2022-10-16T01:23:51.073Z,100447.31
2022-10-16T01:26:17.678Z,100450.53
2022-10-16T01:28:52.791Z,100446.91
2022-10-16T01:31:20.858Z,100453.34
2022-10-16T01:33:50.071Z,100457.78
2022-10-16T01:36:20.703Z,100465.03
2022-10-16T01:38:49.491Z,100471.88
2022-10-16T01:41:18.709Z,100467.03
2022-10-16T01:43:48.854Z,100459.81
2022-10-16T01:46:17.776Z,100462.19
2022-10-16T01:48:44.208Z,100446.53
2022-10-16T01:51:12.462Z,100456.97
2022-10-16T01:53:40.095Z,100451.72
2022-10-16T01:56:09.486Z,100448.53
2022-10-16T01:58:38.892Z,100448.94
2022-10-16T02:01:05.831Z,100440.88
2022-10-16T02:03:33.216Z,100447.31
2022-10-16T02:05:59.916Z,100454.16
2022-10-16T02:08:29.198Z,100452.94
2022-10-16T02:10:56.371Z,100459.78
2022-10-16T02:13:28.708Z,100454.16
2022-10-16T02:15:54.984Z,100446.91
2022-10-16T02:18:21.623Z,100449.72
2022-10-16T02:20:51.190Z,100456.53
2022-10-16T02:23:21.131Z,100450.91
2022-10-16T02:25:48.414Z,100450.91
2022-10-16T02:28:14.845Z,100454.94
2022-10-16T02:30:52.040Z,100462.97
2022-10-16T02:33:20.193Z,100467.00
2022-10-16T02:35:48.378Z,100464.56
2022-10-16T02:38:16.013Z,100469.41
2022-10-16T02:40:43.669Z,100467.81
2022-10-16T02:43:10.472Z,100469.81
2022-10-16T02:45:36.856Z,100467.81
2022-10-16T02:48:03.339Z,100473.03
2022-10-16T02:50:29.883Z,100471.44
2022-10-16T02:52:56.293Z,100474.25
2022-10-16T02:55:22.679Z,100467.78
2022-10-16T02:57:50.428Z,100463.00
2022-10-16T03:00:17.824Z,100471.03
2022-10-16T03:02:44.260Z,100477.06
2022-10-16T03:05:11.246Z,100467.03
2022-10-16T03:07:37.901Z,100472.25
2022-10-16T03:10:04.441Z,100471.84
2022-10-16T03:12:31.047Z,100464.63
2022-10-16T03:14:57.783Z,100458.19
2022-10-16T03:17:24.764Z,100459.38
2022-10-16T03:19:51.219Z,100468.25
2022-10-16T03:22:17.827Z,100469.44
2022-10-16T03:24:44.291Z,100471.47
2022-10-16T03:27:10.547Z,100479.09
2022-10-16T03:29:37.145Z,100479.13
2022-10-16T03:32:04.246Z,100474.72
2022-10-16T03:34:30.604Z,100483.16
2022-10-16T03:36:56.836Z,100480.34
2022-10-16T03:39:23.275Z,100466.28
2022-10-16T03:41:49.639Z,100457.41
2022-10-16T03:44:16.297Z,100464.28
2022-10-16T03:46:42.648Z,100459.44
2022-10-16T03:49:09.958Z,100455.00
2022-10-16T03:51:36.346Z,100460.25
2022-10-16T03:54:02.657Z,100465.47
2022-10-16T03:56:28.946Z,100461.44
2022-10-16T03:58:55.206Z,100462.25
2022-10-16T04:01:21.598Z,100472.28
2022-10-16T04:03:47.842Z,100470.69
2022-10-16T04:06:14.105Z,100478.34
2022-10-16T04:08:43.086Z,100479.56
2022-10-16T04:11:10.046Z,100486.41
2022-10-16T04:13:36.292Z,100496.03
2022-10-16T04:16:02.962Z,100485.19
2022-10-16T04:18:29.966Z,100473.91
2022-10-16T04:20:56.310Z,100479.94
2022-10-16T04:23:23.849Z,100492.00
2022-10-16T04:25:50.111Z,100488.41
2022-10-16T04:28:16.359Z,100497.25
2022-10-16T04:30:42.709Z,100491.22
2022-10-16T04:33:10.189Z,100514.53
2022-10-16T04:35:36.460Z,100515.75
2022-10-16T04:38:02.680Z,100514.53
2022-10-16T04:40:29.065Z,100518.53
2022-10-16T04:42:55.358Z,100515.72
2022-10-16T04:45:21.606Z,100513.28
2022-10-16T04:47:48.021Z,100520.13
2022-10-16T04:50:14.500Z,100524.56
2022-10-16T04:52:40.994Z,100519.72
2022-10-16T04:55:07.648Z,100529.75
2022-10-16T04:57:34.359Z,100529.78
2022-10-16T05:00:00.642Z,100536.59
2022-10-16T05:02:26.908Z,100538.22
2022-10-16T05:04:53.355Z,100544.25
2022-10-16T05:07:19.697Z,100543.00
2022-10-16T05:09:45.971Z,100532.53
2022-10-16T05:12:12.210Z,100534.56
2022-10-16T05:14:38.485Z,100541.38
2022-10-16T05:17:04.948Z,100545.41
2022-10-16T05:19:31.575Z,100538.19
2022-10-16T05:21:57.936Z,100545.00
2022-10-16T05:24:24.472Z,100550.22
2022-10-16T05:26:50.832Z,100549.41
2022-10-16T05:29:17.246Z,100565.09
2022-10-16T05:31:43.569Z,100569.94
2022-10-16T05:34:09.861Z,100567.50
2022-10-16T05:36:36.290Z,100567.50
2022-10-16T05:39:03.959Z,100567.94
2022-10-16T05:41:30.468Z,100575.97
2022-10-16T05:43:56.679Z,100572.78
2022-10-16T05:46:22.959Z,100580.81
2022-10-16T05:48:49.271Z,100575.19
2022-10-16T05:51:16.368Z,100574.78
2022-10-16T05:56:11.263Z,100590.06
2022-10-16T05:58:38.227Z,100587.66
2022-10-16T06:01:06.248Z,100590.06
2022-10-16T06:03:32.618Z,100591.28
2022-10-16T06:05:59.080Z,100591.66
2022-10-16T06:08:25.929Z,100591.66
2022-10-16T06:11:01.945Z,100595.31
2022-10-16T06:13:28.551Z,100602.91
2022-10-16T06:15:57.746Z,100606.56
2022-10-16T06:18:24.542Z,100612.19
2022-10-16T06:20:50.990Z,100610.56
2022-10-16T06:23:17.423Z,100626.25
2022-10-16T06:25:46.004Z,100619.44
2022-10-16T06:28:12.294Z,100624.25
2022-10-16T06:30:38.660Z,100628.69
2022-10-16T06:33:05.074Z,100645.97
2022-10-16T06:35:33.084Z,100641.94
2022-10-16T06:37:59.510Z,100641.56
2022-10-16T06:40:25.931Z,100641.16
2022-10-16T06:42:53.039Z,100645.22
2022-10-16T06:45:19.259Z,100648.03
2022-10-16T06:47:45.545Z,100658.91
2022-10-16T06:50:12.594Z,100656.91
2022-10-16T06:52:39.344Z,100664.13
2022-10-16T06:55:06.688Z,100663.72
2022-10-16T06:57:33.000Z,100679.03
2022-10-16T06:59:59.281Z,100683.47
2022-10-16T07:02:26.103Z,100687.50
2022-10-16T07:04:52.815Z,100683.06
2022-10-16T07:07:19.163Z,100684.75
2022-10-16T07:09:45.420Z,100698.03
2022-10-16T07:12:11.694Z,100689.59
2022-10-16T07:14:38.116Z,100690.41
2022-10-16T07:17:04.521Z,100699.69
2022-10-16T07:19:34.093Z,100705.34
2022-10-16T07:22:00.760Z,100711.78
2022-10-16T07:24:27.188Z,100710.97
2022-10-16T07:26:53.513Z,100719.84
2022-10-16T07:29:21.068Z,100731.97
2022-10-16T07:31:47.819Z,100729.56
2022-10-16T07:34:15.496Z,100731.63
2022-10-16T07:39:09.521Z,100738.47
2022-10-16T07:41:37.893Z,100739.28
2022-10-16T07:44:04.542Z,100741.72
2022-10-16T07:46:30.945Z,100750.56
2022-10-16T07:48:57.173Z,100749.78
2022-10-16T07:51:24.771Z,100746.53
2022-10-16T07:53:52.051Z,100753.00
2022-10-16T07:56:18.761Z,100753.41
2022-10-16T07:58:45.368Z,100754.59
2022-10-16T08:01:15.695Z,100761.84
2022-10-16T08:03:42.900Z,100767.09
2022-10-16T08:06:09.216Z,100768.69
2022-10-16T08:08:36.120Z,100772.34
2022-10-16T08:11:04.870Z,100774.75
2022-10-16T08:13:31.485Z,100777.97
2022-10-16T08:15:57.790Z,100783.22
2022-10-16T08:18:24.151Z,100789.69
2022-10-16T08:20:56.275Z,100796.16
2022-10-16T08:23:22.524Z,100797.41
2022-10-16T08:25:48.815Z,100803.03
2022-10-16T08:28:15.087Z,100801.44
2022-10-16T08:30:41.532Z,100810.72
2022-10-16T08:33:07.778Z,100807.88
2022-10-16T08:35:34.147Z,100813.16
2022-10-16T08:38:00.590Z,100812.75
2022-10-16T08:40:28.528Z,100823.22
2022-10-16T08:43:05.265Z,100818.78
2022-10-16T08:45:35.575Z,100817.63
2022-10-16T08:48:17.005Z,100827.69
2022-10-16T08:50:43.829Z,100819.22
2022-10-16T08:53:15.813Z,100836.56
2022-10-16T08:55:43.591Z,100844.63
2022-10-16T08:58:14.756Z,100840.97
2022-10-16T09:00:41.989Z,100855.09
2022-10-16T09:03:14.995Z,100848.19
2022-10-16T09:05:44.396Z,100854.25
2022-10-16T09:08:31.219Z,100859.06
2022-10-16T09:11:01.695Z,100861.06
2022-10-16T09:13:29.652Z,100859.88
2022-10-16T09:16:13.216Z,100864.28
2022-10-16T09:18:55.599Z,100871.53
2022-10-16T09:21:28.445Z,100869.50
2022-10-16T09:23:55.325Z,100870.31
2022-10-16T09:28:52.580Z,100875.50
2022-10-16T09:31:20.071Z,100873.88
2022-10-16T09:33:49.804Z,100880.72
2022-10-16T09:36:16.303Z,100878.69
2022-10-16T09:38:42.721Z,100879.06
2022-10-16T09:41:22.658Z,100878.63
2022-10-16T09:43:55.009Z,100883.06
2022-10-16T09:46:31.762Z,100885.44
2022-10-16T09:48:59.415Z,100884.22
2022-10-16T09:51:25.622Z,100889.44
2022-10-16T09:53:55.497Z,100886.63
2022-10-16T09:56:26.906Z,100895.91
2022-10-16T09:58:54.497Z,100893.06
2022-10-16T10:01:21.543Z,100895.84
2022-10-16T10:03:48.688Z,100901.06
2022-10-16T10:06:23.551Z,100902.28
2022-10-16T10:09:00.535Z,100891.31
2022-10-16T10:11:39.151Z,100898.13
2022-10-16T10:14:06.728Z,100894.47
2022-10-16T10:16:33.002Z,100904.16
2022-10-16T10:19:02.145Z,100908.19
2022-10-16T10:21:28.595Z,100907.75
2022-10-16T10:24:01.619Z,100915.03
2022-10-16T10:26:29.974Z,100913.00
2022-10-16T10:29:14.668Z,100911.38
2022-10-16T10:31:57.040Z,100910.13
2022-10-16T10:34:26.341Z,100914.47
2022-10-16T10:36:58.884Z,100910.81
2022-10-16T10:39:28.846Z,100920.06
2022-10-16T10:41:57.979Z,100922.84
2022-10-16T10:44:31.678Z,100923.63
2022-10-16T10:47:02.214Z,100916.66
2022-10-16T10:49:37.888Z,100920.72
2022-10-16T10:52:22.886Z,100921.06
2022-10-16T10:54:56.034Z,100914.56
2022-10-16T10:57:40.553Z,100914.94
2022-10-16T11:00:10.473Z,100919.78
2022-10-16T11:02:39.272Z,100912.53
2022-10-16T11:05:24.239Z,100922.63
2022-10-16T11:07:53.524Z,100914.53
2022-10-16T11:10:22.774Z,100912.06
2022-10-16T11:12:55.989Z,100912.84
2022-10-16T11:15:25.497Z,100920.06
2022-10-16T11:18:03.691Z,100922.88
2022-10-16T11:20:54.251Z,100924.84
2022-10-16T11:23:49.934Z,100921.19
2022-10-16T11:26:20.770Z,100923.16
2022-10-16T11:28:51.434Z,100920.28
2022-10-16T11:31:38.579Z,100915.41
2022-10-16T11:34:16.793Z,100921.44
2022-10-16T11:36:45.510Z,100933.53
2022-10-16T11:39:11.738Z,100924.19
2022-10-16T11:41:52.561Z,100927.38
2022-10-16T11:44:18.762Z,100933.38
2022-10-16T11:47:00.740Z,100933.72
2022-10-16T11:49:37.511Z,100928.38
2022-10-16T11:52:26.697Z,100929.94
2022-10-16T11:54:59.491Z,100926.69
2022-10-16T11:57:29.095Z,100928.28
2022-10-16T12:00:04.626Z,100924.22
2022-10-16T12:02:34.752Z,100933.09
2022-10-16T12:05:19.867Z,100931.06
2022-10-16T12:08:02.282Z,100931.50
2022-10-16T12:10:30.386Z,100932.38
2022-10-16T12:12:57.476Z,100939.66
2022-10-16T12:15:46.945Z,100946.56
2022-10-16T12:18:25.495Z,100949.41
2022-10-16T12:21:01.745Z,100948.56
2022-10-16T12:23:28.047Z,100942.53
2022-10-16T12:25:55.920Z,100946.59
2022-10-16T12:28:23.717Z,100942.53
2022-10-16T12:30:54.967Z,100944.16
2022-10-16T12:33:29.188Z,100947.00
2022-10-16T12:35:56.080Z,100945.78
2022-10-16T12:38:26.262Z,100948.63
2022-10-16T12:41:12.008Z,100951.03
2022-10-16T12:43:40.229Z,100942.09
2022-10-16T12:46:22.451Z,100947.72
2022-10-16T12:49:05.650Z,100949.72
2022-10-16T12:51:33.261Z,100960.22
2022-10-16T12:54:02.709Z,100962.19
2022-10-16T12:59:22.487Z,100957.53
2022-10-16T13:02:07.341Z,100953.81
2022-10-16T13:04:41.626Z,100959.03
2022-10-16T13:07:20.158Z,100962.63
2022-10-16T13:09:46.811Z,100962.13
2022-10-16T13:12:19.392Z,100963.31
2022-10-16T13:14:54.873Z,100963.69
2022-10-16T13:17:28.023Z,100968.13
2022-10-16T13:19:57.628Z,100968.94
2022-10-16T13:22:30.150Z,100970.59
2022-10-16T13:25:15.411Z,100966.59
2022-10-16T13:27:47.659Z,100964.22
2022-10-16T13:30:28.193Z,100963.47
2022-10-16T13:33:02.358Z,100964.31
2022-10-16T13:35:36.077Z,100972.03
2022-10-16T13:38:11.374Z,100971.22
2022-10-16T13:40:37.773Z,100977.72
2022-10-16T13:43:04.096Z,100973.66
2022-10-16T13:45:30.915Z,100975.25
2022-10-16T13:48:05.542Z,100974.81
2022-10-16T13:50:32.111Z,100976.44
2022-10-16T13:53:05.795Z,100983.72
2022-10-16T13:55:32.345Z,100996.72
2022-10-16T13:58:14.752Z,100996.72
2022-10-16T14:00:42.996Z,101001.59
2022-10-16T14:03:15.130Z,100997.13
2022-10-16T14:05:52.661Z,100998.00
2022-10-16T14:08:19.467Z,100999.63
2022-10-16T14:10:50.378Z,101002.94
2022-10-16T14:13:19.632Z,100995.69
2022-10-16T14:15:50.029Z,100988.88
2022-10-16T14:18:21.018Z,100975.94
2022-10-16T14:20:47.448Z,100983.69
2022-10-16T14:23:24.529Z,100975.66
2022-10-16T14:25:50.897Z,100982.59
2022-10-16T14:28:19.287Z,100991.97
2022-10-16T14:30:56.599Z,100987.56
2022-10-16T14:33:22.923Z,100987.97
2022-10-16T14:35:59.811Z,100986.75
2022-10-16T14:38:27.430Z,100991.22
2022-10-16T14:40:54.759Z,100994.00
2022-10-16T14:43:22.999Z,100996.00
2022-10-16T14:45:56.809Z,101004.47
2022-10-16T14:48:23.245Z,101006.03
2022-10-16T14:50:49.483Z,101008.09
2022-10-16T14:53:17.420Z,101011.72
2022-10-16T14:55:43.941Z,101015.41
2022-10-16T14:58:15.644Z,101014.22
2022-10-16T15:00:41.945Z,101011.84
2022-10-16T15:03:08.396Z,101004.59
2022-10-16T15:05:34.663Z,100990.44
2022-10-16T15:08:00.884Z,100979.13
2022-10-16T15:10:28.894Z,100957.25
2022-10-16T15:12:55.798Z,100964.16
2022-10-16T15:15:26.130Z,100969.84
2022-10-16T15:18:01.926Z,100998.19
2022-10-16T15:20:29.330Z,101014.41
2022-10-16T15:22:55.596Z,101016.38
2022-10-16T15:25:31.633Z,101011.47
2022-10-16T15:27:57.871Z,100990.34
2022-10-16T15:30:24.166Z,100996.44
2022-10-16T15:32:50.605Z,101015.50
2022-10-16T15:35:17.188Z,101019.53
2022-10-16T15:37:43.437Z,101009.84
2022-10-16T15:40:11.112Z,101007.06
2022-10-16T15:42:37.573Z,101015.22
2022-10-16T15:45:04.999Z,101008.41
2022-10-16T15:47:31.250Z,101009.28
2022-10-16T15:49:57.511Z,101015.03
2022-10-16T15:52:24.271Z,101011.47
2022-10-16T15:54:54.325Z,101007.06
2022-10-16T15:57:21.041Z,101009.16
2022-10-16T15:59:49.593Z,101002.72
2022-10-16T16:02:16.744Z,100999.97
2022-10-16T16:04:44.367Z,100998.81
2022-10-16T16:07:10.991Z,101004.50
2022-10-16T16:09:37.585Z,101007.00
2022-10-16T16:12:04.097Z,101014.34
2022-10-16T16:14:30.415Z,101005.06
2022-10-16T16:16:57.224Z,100997.00
2022-10-16T16:19:23.609Z,100996.59
2022-10-16T16:21:50.616Z,100997.88
2022-10-16T16:24:17.934Z,100998.31
2022-10-16T16:26:44.606Z,100995.50
2022-10-16T16:29:14.936Z,101004.44
2022-10-16T16:31:41.312Z,101003.28
2022-10-16T16:34:07.647Z,101013.81
2022-10-16T16:36:36.524Z,101011.00
2022-10-16T16:39:03.617Z,101016.66
2022-10-16T16:41:31.110Z,101019.91
2022-10-16T16:44:02.822Z,101007.34
2022-10-16T16:46:29.419Z,101008.16
2022-10-16T16:48:56.371Z,101014.69
2022-10-16T16:51:22.753Z,101019.13
2022-10-16T16:53:50.421Z,101027.63
2022-10-16T16:56:17.244Z,101032.13
2022-10-16T16:58:46.214Z,101034.97
2022-10-16T17:01:19.970Z,101031.38
2022-10-16T17:03:47.588Z,101031.38
2022-10-16T17:06:15.292Z,101038.66
2022-10-16T17:08:41.616Z,101037.88
2022-10-16T17:11:12.520Z,101042.75
2022-10-16T17:13:39.332Z,101047.16
2022-10-16T17:16:06.404Z,101042.72
2022-10-16T17:18:33.506Z,101049.22
2022-10-16T17:21:00.223Z,101043.56
2022-10-16T17:23:26.656Z,101044.38
2022-10-16T17:25:52.964Z,101053.69
2022-10-16T17:28:19.480Z,101056.53
2022-10-16T17:30:45.996Z,101057.34
2022-10-16T17:33:12.622Z,101060.56
2022-10-16T17:35:43.548Z,101062.22
2022-10-16T17:38:10.108Z,101054.13
2022-10-16T17:40:36.481Z,101057.38
2022-10-16T17:43:02.939Z,101051.69
2022-10-16T17:45:29.826Z,101060.59
2022-10-16T17:47:58.218Z,101062.63
2022-10-16T17:50:24.730Z,101068.69
2022-10-16T17:52:50.997Z,101066.25
2022-10-16T17:55:17.634Z,101069.88
2022-10-16T17:57:44.338Z,101066.69
2022-10-16T18:00:11.562Z,101069.09
2022-10-16T18:02:42.244Z,101074.75
2022-10-16T18:05:09.447Z,101074.34
2022-10-16T18:07:35.745Z,101073.53
2022-10-16T18:10:10.217Z,101071.94
2022-10-16T18:12:37.398Z,101070.72
2022-10-16T18:15:03.953Z,101070.72
2022-10-16T18:17:31.489Z,101075.97
2022-10-16T18:19:57.919Z,101079.22
2022-10-16T18:22:27.364Z,101081.25
2022-10-16T18:24:53.641Z,101078.00
2022-10-16T18:27:20.360Z,101079.22
2022-10-16T18:29:46.717Z,101086.06
2022-10-16T18:32:12.948Z,101097.38
2022-10-16T18:34:39.229Z,101099.41
2022-10-16T18:37:05.514Z,101095.75
2022-10-16T18:39:31.802Z,101084.06
2022-10-16T18:42:00.070Z,101083.25
2022-10-16T18:44:27.100Z,101077.97
2022-10-16T18:46:56.936Z,101076.38
2022-10-16T18:49:23.808Z,101076.78
2022-10-16T18:51:52.952Z,101083.66
2022-10-16T18:54:19.418Z,101088.91
2022-10-16T18:56:45.808Z,101087.28
2022-10-16T18:59:12.306Z,101076.34
2022-10-16T19:01:39.134Z,101079.19
2022-10-16T19:04:06.897Z,101069.91
2022-10-16T19:06:34.445Z,101065.03
2022-10-16T19:09:00.812Z,101074.75
2022-10-16T19:11:27.345Z,101073.94
2022-10-16T19:13:56.440Z,101084.44
2022-10-16T19:16:26.791Z,101086.03
2022-10-16T19:18:54.380Z,101085.22
2022-10-16T19:21:21.410Z,101074.72
2022-10-16T19:23:52.017Z,101085.22
2022-10-16T19:26:19.081Z,101087.66
2022-10-16T19:28:45.822Z,101086.44
2022-10-16T19:31:14.184Z,101106.63
2022-10-16T19:33:40.812Z,101120.75
2022-10-16T19:36:26.895Z,101120.38
2022-10-16T19:38:54.728Z,101134.50
2022-10-16T19:41:21.161Z,101145.81
2022-10-16T19:43:47.646Z,101146.63
2022-10-16T19:46:15.967Z,101161.56
2022-10-16T19:48:42.495Z,101169.66
2022-10-16T19:51:13.054Z,101165.19
2022-10-16T19:53:39.538Z,101148.22
2022-10-16T19:56:16.423Z,101145.00
2022-10-16T19:58:43.428Z,101144.97
2022-10-16T20:01:13.730Z,101142.56
2022-10-16T20:03:40.366Z,101141.34
2022-10-16T20:06:07.604Z,101142.53
2022-10-16T20:08:34.717Z,101138.06
2022-10-16T20:11:01.138Z,101130.00
2022-10-16T20:13:28.912Z,101129.56
2022-10-16T20:15:55.442Z,101126.72
2022-10-16T20:18:21.827Z,101140.41
2022-10-16T20:20:49.525Z,101147.25
2022-10-16T20:23:16.411Z,101152.88
2022-10-16T20:25:42.774Z,101131.91
2022-10-16T20:28:10.925Z,101131.88
2022-10-16T20:30:38.519Z,101139.94
2022-10-16T20:33:04.928Z,101153.63
2022-10-16T20:35:35.624Z,101146.75
2022-10-16T20:38:01.907Z,101142.34
2022-10-16T20:40:28.185Z,101140.69
2022-10-16T20:42:54.466Z,101141.09
2022-10-16T20:45:20.774Z,101137.88
2022-10-16T20:47:47.404Z,101139.06
2022-10-16T20:50:16.348Z,101137.84
2022-10-16T20:52:42.838Z,101133.78
2022-10-16T20:55:09.361Z,101136.22
2022-10-16T20:57:35.761Z,101137.41
2022-10-16T21:00:02.087Z,101141.81
2022-10-16T21:02:29.753Z,101131.75
2022-10-16T21:04:55.976Z,101132.16
2022-10-16T21:07:22.298Z,101137.78
2022-10-16T21:09:48.744Z,101140.19
2022-10-16T21:12:15.173Z,101136.53
2022-10-16T21:14:51.074Z,101142.56
2022-10-16T21:17:28.050Z,101140.53
2022-10-16T21:19:54.358Z,101137.31
2022-10-16T21:22:20.659Z,101140.53
2022-10-16T21:24:46.942Z,101141.34
2022-10-16T21:27:13.244Z,101144.16
2022-10-16T21:29:39.765Z,101148.19
2022-10-16T21:32:06.200Z,101142.53
2022-10-16T21:34:32.640Z,101136.50
2022-10-16T21:36:59.067Z,101143.34
2022-10-16T21:39:25.501Z,101141.72
2022-10-16T21:41:51.843Z,101127.59
2022-10-16T21:44:20.197Z,101128.00
2022-10-16T21:46:46.895Z,101122.75
2022-10-16T21:49:14.555Z,101128.38
2022-10-16T21:51:42.057Z,101121.13
2022-10-16T21:54:10.108Z,101125.94
2022-10-16T21:56:36.474Z,101121.91
2022-10-16T21:59:05.566Z,101118.25
2022-10-16T22:01:32.525Z,101123.44
2022-10-16T22:03:58.853Z,101114.97
2022-10-16T22:06:26.986Z,101118.19
2022-10-16T22:08:55.155Z,101125.03
2022-10-16T22:11:26.174Z,101119.34
2022-10-16T22:13:54.164Z,101112.50
2022-10-16T22:16:22.579Z,101104.41
2022-10-16T22:18:51.043Z,101102.00
2022-10-16T22:21:17.457Z,101106.41
2022-10-16T22:23:43.902Z,101099.91
2022-10-16T22:26:11.664Z,101105.91
2022-10-16T22:28:39.202Z,101113.97
2022-10-16T22:31:07.296Z,101100.66
2022-10-16T22:33:35.281Z,101100.25
2022-10-16T22:36:02.561Z,101102.66
2022-10-16T22:38:29.789Z,101100.59
2022-10-16T22:40:56.232Z,101103.81
2022-10-16T22:43:22.486Z,101099.75
2022-10-16T22:45:48.910Z,101105.00
2022-10-16T22:48:15.725Z,101099.72
2022-10-16T22:50:42.205Z,101104.97
2022-10-16T22:53:08.475Z,101104.97
2022-10-16T22:55:35.318Z,101109.34
2022-10-16T22:58:01.559Z,101106.94
2022-10-16T23:00:27.846Z,101102.91
2022-10-16T23:02:55.202Z,101108.09
2022-10-16T23:05:21.498Z,101111.31
2022-10-16T23:07:49.830Z,101108.06
2022-10-16T23:10:16.120Z,101109.28
2022-10-16T23:12:42.367Z,101105.25
2022-10-16T23:15:08.982Z,101103.59
2022-10-16T23:17:35.241Z,101100.78
2022-10-16T23:20:02.148Z,101104.00
2022-10-16T23:22:28.722Z,101101.13
2022-10-16T23:24:55.401Z,101097.91
2022-10-16T23:27:22.342Z,101101.50
2022-10-16T23:29:49.514Z,101099.06
2022-10-16T23:32:15.954Z,101105.09
2022-10-16T23:34:42.228Z,101102.66
2022-10-16T23:37:08.595Z,101101.84
2022-10-16T23:39:34.876Z,101097.41
2022-10-16T23:42:01.140Z,101109.88
2022-10-16T23:44:27.397Z,101106.25
2022-10-16T23:46:54.045Z,101108.28
2022-10-16T23:49:20.465Z,101103.81
2022-10-16T23:51:46.920Z,101112.25
2022-10-16T23:54:13.336Z,101107.78
2022-10-16T23:56:39.619Z,101114.22
2022-10-16T23:59:05.904Z,101115.78
